createdAt,value
2019-02-26T00:04:53.000Z,17.1
2019-02-26T00:14:53.000Z,16.9
2019-02-26T00:24:55.000Z,16.7
2019-02-26T00:34:53.000Z,16.7
2019-02-26T00:44:53.000Z,16.6
2019-02-26T00:54:53.000Z,16.5
2019-02-26T01:04:53.000Z,16.5
2019-02-26T01:14:53.000Z,16.5
2019-02-26T01:24:54.000Z,16.5
2019-02-26T01:34:54.000Z,16.4
2019-02-26T01:44:54.000Z,16.3
2019-02-26T01:54:54.000Z,16.2
2019-02-26T02:04:54.000Z,16.1
2019-02-26T02:14:54.000Z,16.1
2019-02-26T02:24:54.000Z,16
2019-02-26T02:34:54.000Z,16
2019-02-26T02:44:54.000Z,16
2019-02-26T02:54:54.000Z,15.8
2019-02-26T03:04:54.000Z,15.8
2019-02-26T03:14:54.000Z,15.6
2019-02-26T03:24:54.000Z,15.5
2019-02-26T03:34:54.000Z,15.5
2019-02-26T03:44:54.000Z,15.4
2019-02-26T03:54:54.000Z,15.3
2019-02-26T04:04:54.000Z,15.3
2019-02-26T04:14:54.000Z,15.2
2019-02-26T04:24:54.000Z,15.2
2019-02-26T04:34:54.000Z,15.2
2019-02-26T04:44:54.000Z,15.2
2019-02-26T04:54:54.000Z,15.2
2019-02-26T05:04:54.000Z,15.1
2019-02-26T05:14:54.000Z,15.1
2019-02-26T05:24:54.000Z,15
2019-02-26T05:34:54.000Z,15
2019-02-26T05:44:54.000Z,14.9
2019-02-26T05:54:54.000Z,14.8
2019-02-26T06:04:54.000Z,14.6
2019-02-26T06:14:54.000Z,14.7
2019-02-26T06:24:54.000Z,14.7
2019-02-26T06:34:54.000Z,14.7
2019-02-26T06:44:54.000Z,15.6
2019-02-26T06:54:54.000Z,16.9
2019-02-26T07:04:54.000Z,17.5
2019-02-26T07:14:54.000Z,17.8
2019-02-26T07:24:54.000Z,18.2
2019-02-26T07:34:54.000Z,18.5
2019-02-26T07:44:54.000Z,18.8
2019-02-26T10:04:01.000Z,18.4
2019-02-26T10:14:01.000Z,19
2019-02-26T10:24:01.000Z,19
2019-02-26T10:34:01.000Z,19.2
2019-02-26T10:44:01.000Z,19.4
2019-02-26T10:54:01.000Z,19.5
2019-02-26T11:04:01.000Z,19.7
2019-02-26T11:14:03.000Z,19.8
2019-02-26T11:24:01.000Z,19.8
2019-02-26T11:34:01.000Z,19.9
2019-02-26T11:44:02.000Z,19.9
2019-02-26T11:54:01.000Z,19.9
2019-02-26T12:04:01.000Z,19.9
2019-02-26T12:14:01.000Z,20
2019-02-26T12:24:01.000Z,20
2019-02-26T12:34:01.000Z,20.1
2019-02-26T12:44:01.000Z,20.1
2019-02-26T12:54:01.000Z,20.3
2019-02-26T13:04:01.000Z,20.3
2019-02-26T13:14:01.000Z,20.4
2019-02-26T13:24:01.000Z,20.4
2019-02-26T13:34:01.000Z,20.4
2019-02-26T13:44:01.000Z,20.4
2019-02-26T13:54:01.000Z,20.5
2019-02-26T14:04:01.000Z,20.5
2019-02-26T14:14:01.000Z,20.6
2019-02-26T14:24:01.000Z,20.6
2019-02-26T14:34:01.000Z,20.6
2019-02-26T14:44:02.000Z,20.7
2019-02-26T14:54:02.000Z,20.6
2019-02-26T15:04:02.000Z,20.6
2019-02-26T15:24:02.000Z,20.7
2019-02-26T15:34:02.000Z,20.8
2019-02-26T15:54:02.000Z,20.8
2019-02-26T16:04:05.000Z,20.8
2019-02-26T16:14:02.000Z,20.8
2019-02-26T16:24:02.000Z,20.8
2019-02-26T16:34:02.000Z,20.8
2019-02-26T16:44:02.000Z,20.8
2019-02-26T16:54:02.000Z,20.9
2019-02-26T17:04:02.000Z,21.1
2019-02-26T17:14:02.000Z,21.1
2019-02-26T17:24:02.000Z,21
2019-02-26T17:34:02.000Z,21
2019-02-26T17:44:02.000Z,20.9
2019-02-26T17:54:02.000Z,21
2019-02-26T18:04:02.000Z,21
2019-02-26T18:14:02.000Z,21
2019-02-26T18:24:02.000Z,21.1
2019-02-26T18:34:02.000Z,21.1
2019-02-26T18:44:02.000Z,21.1
2019-02-26T18:54:02.000Z,21.1
2019-02-26T19:04:02.000Z,21
2019-02-26T19:14:02.000Z,21.1
2019-02-26T19:24:02.000Z,21
2019-02-26T19:34:02.000Z,21
2019-02-26T19:44:02.000Z,21
2019-02-26T19:54:02.000Z,21
2019-02-26T20:04:02.000Z,21
2019-02-26T20:14:02.000Z,20.9
2019-02-26T20:24:05.000Z,21
2019-02-26T20:34:02.000Z,21
2019-02-26T20:54:03.000Z,20.9
2019-02-26T21:04:02.000Z,21
2019-02-26T21:14:02.000Z,21
2019-02-26T21:24:03.000Z,21.1
2019-02-26T21:34:02.000Z,21
2019-02-26T21:44:03.000Z,21
2019-02-26T21:54:06.000Z,21.1
2019-02-26T22:04:03.000Z,21.1
2019-02-26T22:14:07.000Z,21.1
2019-02-26T22:24:04.000Z,21.1
2019-02-26T22:34:03.000Z,21.2
2019-02-26T22:44:03.000Z,21.2
2019-02-26T22:54:03.000Z,20
2019-02-26T23:04:03.000Z,19
2019-02-26T23:14:03.000Z,18.6
2019-02-26T23:24:03.000Z,18.7
2019-02-26T23:34:03.000Z,18
2019-02-26T23:44:03.000Z,18.3
2019-02-26T23:54:03.000Z,17.8
